Highland Park, Texas
Current Conditions -  °F | °C
As of 6:53 PM on Sunday 21 Dec 2014 (Local Time) from KDAL Reporting Station
Overcast Overcast  
Wind Chill: 52°   Ceiling: 2700
Heat Index: 52°   Visibility: 10mi
Dew Point: 46°   Wind: 16mph
Humidity: 80%   Direction: 150°SSE
Pressure: 29.82"   Gusts: NA
Location:  32.8486°N, 96.8258°W
Report Text: KDAL 220053Z 15014KT 10SM BKN027 OVC030 11/08 A2982 RMK AO2 SLP097 T01110078
Loading
Personal Weather Stations






























Interactive Weather Map New forecast layout! Learn more

10-Day Weather Forecast

Advertisements
Track Severe Weather on mobile